sensor_id;sensor_type;location;lat;lon;timestamp;temperature;humidity
41756;DHT22;27435;48.480;9.258;2024-02-26T00:02:16;7.90;73.30
41756;DHT22;27435;48.480;9.258;2024-02-26T00:04:42;7.80;72.60
41756;DHT22;27435;48.480;9.258;2024-02-26T00:07:08;7.80;73.10
41756;DHT22;27435;48.480;9.258;2024-02-26T00:09:33;7.70;72.50
41756;DHT22;27435;48.480;9.258;2024-02-26T00:12:04;7.80;72.10
41756;DHT22;27435;48.480;9.258;2024-02-26T00:14:30;7.80;72.80
41756;DHT22;27435;48.480;9.258;2024-02-26T00:16:56;7.80;71.90
41756;DHT22;27435;48.480;9.258;2024-02-26T00:19:22;7.70;71.70
41756;DHT22;27435;48.480;9.258;2024-02-26T00:21:47;7.80;72.20
41756;DHT22;27435;48.480;9.258;2024-02-26T00:24:13;7.70;72.00
41756;DHT22;27435;48.480;9.258;2024-02-26T00:26:39;7.70;70.00
41756;DHT22;27435;48.480;9.258;2024-02-26T00:29:04;7.80;69.40
41756;DHT22;27435;48.480;9.258;2024-02-26T00:31:30;7.90;68.60
41756;DHT22;27435;48.480;9.258;2024-02-26T00:33:56;7.90;68.60
41756;DHT22;27435;48.480;9.258;2024-02-26T00:36:22;7.90;68.70
41756;DHT22;27435;48.480;9.258;2024-02-26T00:38:47;7.90;68.90
41756;DHT22;27435;48.480;9.258;2024-02-26T00:41:17;7.90;69.70
41756;DHT22;27435;48.480;9.258;2024-02-26T00:43:42;7.90;69.90
41756;DHT22;27435;48.480;9.258;2024-02-26T00:46:08;7.80;70.30
41756;DHT22;27435;48.480;9.258;2024-02-26T00:48:34;7.80;70.80
41756;DHT22;27435;48.480;9.258;2024-02-26T00:51:00;7.90;69.40
41756;DHT22;27435;48.480;9.258;2024-02-26T00:53:26;7.90;70.00
41756;DHT22;27435;48.480;9.258;2024-02-26T00:55:51;8.00;69.10
41756;DHT22;27435;48.480;9.258;2024-02-26T00:58:17;8.00;69.50
41756;DHT22;27435;48.480;9.258;2024-02-26T01:00:44;8.00;70.20
41756;DHT22;27435;48.480;9.258;2024-02-26T01:03:10;8.00;70.20
41756;DHT22;27435;48.480;9.258;2024-02-26T01:05:36;7.90;72.20
41756;DHT22;27435;48.480;9.258;2024-02-26T01:08:03;7.90;71.80
41756;DHT22;27435;48.480;9.258;2024-02-26T01:10:29;7.90;72.40
41756;DHT22;27435;48.480;9.258;2024-02-26T01:12:54;7.80;73.00
41756;DHT22;27435;48.480;9.258;2024-02-26T01:15:20;7.80;72.30
41756;DHT22;27435;48.480;9.258;2024-02-26T01:17:49;7.70;71.80
41756;DHT22;27435;48.480;9.258;2024-02-26T01:20:15;7.70;72.70
41756;DHT22;27435;48.480;9.258;2024-02-26T01:22:42;7.70;72.70
41756;DHT22;27435;48.480;9.258;2024-02-26T01:25:08;7.60;73.30
41756;DHT22;27435;48.480;9.258;2024-02-26T01:27:35;7.60;73.80
41756;DHT22;27435;48.480;9.258;2024-02-26T01:30:03;7.60;74.40
41756;DHT22;27435;48.480;9.258;2024-02-26T01:32:29;7.50;74.30
41756;DHT22;27435;48.480;9.258;2024-02-26T01:34:55;7.40;74.60
41756;DHT22;27435;48.480;9.258;2024-02-26T01:37:21;7.40;74.40
41756;DHT22;27435;48.480;9.258;2024-02-26T01:39:47;7.50;74.40
41756;DHT22;27435;48.480;9.258;2024-02-26T01:42:12;7.50;74.10
41756;DHT22;27435;48.480;9.258;2024-02-26T01:44:38;7.50;73.40
41756;DHT22;27435;48.480;9.258;2024-02-26T01:47:05;7.60;73.00
41756;DHT22;27435;48.480;9.258;2024-02-26T01:49:34;7.50;73.00
41756;DHT22;27435;48.480;9.258;2024-02-26T01:52:01;7.60;73.00
41756;DHT22;27435;48.480;9.258;2024-02-26T01:54:27;7.60;72.90
41756;DHT22;27435;48.480;9.258;2024-02-26T01:56:53;7.60;73.90
41756;DHT22;27435;48.480;9.258;2024-02-26T01:59:19;7.60;73.80
41756;DHT22;27435;48.480;9.258;2024-02-26T02:01:48;7.70;74.30
41756;DHT22;27435;48.480;9.258;2024-02-26T02:04:15;7.80;74.50
41756;DHT22;27435;48.480;9.258;2024-02-26T02:06:42;7.80;72.90
41756;DHT22;27435;48.480;9.258;2024-02-26T02:09:09;7.70;72.80
41756;DHT22;27435;48.480;9.258;2024-02-26T02:11:35;7.70;73.00
41756;DHT22;27435;48.480;9.258;2024-02-26T02:14:01;7.70;72.50
41756;DHT22;27435;48.480;9.258;2024-02-26T02:16:26;7.70;72.00
41756;DHT22;27435;48.480;9.258;2024-02-26T02:18:52;7.70;72.00
41756;DHT22;27435;48.480;9.258;2024-02-26T02:21:18;7.70;72.20
41756;DHT22;27435;48.480;9.258;2024-02-26T02:23:43;7.60;72.60
41756;DHT22;27435;48.480;9.258;2024-02-26T02:26:12;7.70;76.20
41756;DHT22;27435;48.480;9.258;2024-02-26T02:28:39;7.90;75.10
41756;DHT22;27435;48.480;9.258;2024-02-26T02:31:05;7.90;75.30
41756;DHT22;27435;48.480;9.258;2024-02-26T02:33:32;7.90;75.00
41756;DHT22;27435;48.480;9.258;2024-02-26T02:35:58;7.90;74.50
41756;DHT22;27435;48.480;9.258;2024-02-26T02:38:24;7.80;74.70
41756;DHT22;27435;48.480;9.258;2024-02-26T02:40:51;7.60;74.80
41756;DHT22;27435;48.480;9.258;2024-02-26T02:43:17;7.50;75.60
41756;DHT22;27435;48.480;9.258;2024-02-26T02:45:43;7.40;76.90
41756;DHT22;27435;48.480;9.258;2024-02-26T02:48:10;7.60;77.00
41756;DHT22;27435;48.480;9.258;2024-02-26T02:50:36;7.60;74.90
41756;DHT22;27435;48.480;9.258;2024-02-26T02:53:01;7.60;75.70
41756;DHT22;27435;48.480;9.258;2024-02-26T02:55:27;7.50;75.00
41756;DHT22;27435;48.480;9.258;2024-02-26T02:57:53;7.50;75.60
41756;DHT22;27435;48.480;9.258;2024-02-26T03:00:19;7.70;75.70
41756;DHT22;27435;48.480;9.258;2024-02-26T03:02:45;7.50;76.70
41756;DHT22;27435;48.480;9.258;2024-02-26T03:05:11;7.50;77.70
41756;DHT22;27435;48.480;9.258;2024-02-26T03:07:37;7.50;77.70
41756;DHT22;27435;48.480;9.258;2024-02-26T03:10:03;7.60;77.10
41756;DHT22;27435;48.480;9.258;2024-02-26T03:12:30;7.50;76.50
41756;DHT22;27435;48.480;9.258;2024-02-26T03:14:55;7.40;76.50
41756;DHT22;27435;48.480;9.258;2024-02-26T03:17:21;7.20;77.70
41756;DHT22;27435;48.480;9.258;2024-02-26T03:19:49;7.20;78.10
41756;DHT22;27435;48.480;9.258;2024-02-26T03:22:18;7.40;77.90
41756;DHT22;27435;48.480;9.258;2024-02-26T03:24:44;7.50;78.00
41756;DHT22;27435;48.480;9.258;2024-02-26T03:27:10;7.30;78.00
41756;DHT22;27435;48.480;9.258;2024-02-26T03:29:37;7.50;77.90
41756;DHT22;27435;48.480;9.258;2024-02-26T03:32:04;7.60;78.80
41756;DHT22;27435;48.480;9.258;2024-02-26T03:34:29;7.50;79.00
41756;DHT22;27435;48.480;9.258;2024-02-26T03:36:56;7.40;78.90
41756;DHT22;27435;48.480;9.258;2024-02-26T03:39:22;7.20;79.40
41756;DHT22;27435;48.480;9.258;2024-02-26T03:41:48;7.20;80.10
41756;DHT22;27435;48.480;9.258;2024-02-26T03:44:14;7.30;80.50
41756;DHT22;27435;48.480;9.258;2024-02-26T03:46:40;7.20;80.60
41756;DHT22;27435;48.480;9.258;2024-02-26T03:49:08;7.20;81.50
41756;DHT22;27435;48.480;9.258;2024-02-26T03:51:34;7.30;80.60
41756;DHT22;27435;48.480;9.258;2024-02-26T03:54:00;7.20;79.70
41756;DHT22;27435;48.480;9.258;2024-02-26T03:56:26;7.20;80.10
41756;DHT22;27435;48.480;9.258;2024-02-26T03:58:52;7.30;80.20
41756;DHT22;27435;48.480;9.258;2024-02-26T04:01:18;7.10;81.50
41756;DHT22;27435;48.480;9.258;2024-02-26T04:03:43;7.10;82.30
41756;DHT22;27435;48.480;9.258;2024-02-26T04:06:09;7.00;84.00
41756;DHT22;27435;48.480;9.258;2024-02-26T04:08:46;6.90;84.90
41756;DHT22;27435;48.480;9.258;2024-02-26T04:11:12;6.90;85.00
41756;DHT22;27435;48.480;9.258;2024-02-26T04:13:38;6.90;85.20
41756;DHT22;27435;48.480;9.258;2024-02-26T04:16:07;6.90;84.20
41756;DHT22;27435;48.480;9.258;2024-02-26T04:18:33;7.00;81.60
41756;DHT22;27435;48.480;9.258;2024-02-26T04:20:59;7.20;79.20
41756;DHT22;27435;48.480;9.258;2024-02-26T04:23:24;7.40;78.50
41756;DHT22;27435;48.480;9.258;2024-02-26T04:25:50;7.40;78.50
41756;DHT22;27435;48.480;9.258;2024-02-26T04:28:18;7.50;79.40
41756;DHT22;27435;48.480;9.258;2024-02-26T04:30:47;7.40;80.20
41756;DHT22;27435;48.480;9.258;2024-02-26T04:33:13;7.40;79.90
41756;DHT22;27435;48.480;9.258;2024-02-26T04:35:39;7.40;79.70
41756;DHT22;27435;48.480;9.258;2024-02-26T04:38:04;7.20;80.70
41756;DHT22;27435;48.480;9.258;2024-02-26T04:40:30;7.10;81.30
41756;DHT22;27435;48.480;9.258;2024-02-26T04:42:56;7.10;81.40
41756;DHT22;27435;48.480;9.258;2024-02-26T04:45:22;7.00;81.50
41756;DHT22;27435;48.480;9.258;2024-02-26T04:47:48;7.00;80.50
41756;DHT22;27435;48.480;9.258;2024-02-26T04:50:14;7.00;81.30
41756;DHT22;27435;48.480;9.258;2024-02-26T04:52:39;7.10;81.30
41756;DHT22;27435;48.480;9.258;2024-02-26T04:55:05;7.20;80.90
41756;DHT22;27435;48.480;9.258;2024-02-26T04:57:31;7.20;80.30
41756;DHT22;27435;48.480;9.258;2024-02-26T04:59:56;7.10;80.30
41756;DHT22;27435;48.480;9.258;2024-02-26T05:02:22;7.10;79.80
41756;DHT22;27435;48.480;9.258;2024-02-26T05:04:48;7.10;80.60
41756;DHT22;27435;48.480;9.258;2024-02-26T05:07:13;7.10;80.10
41756;DHT22;27435;48.480;9.258;2024-02-26T05:09:40;7.20;80.30
41756;DHT22;27435;48.480;9.258;2024-02-26T05:12:07;7.30;79.90
41756;DHT22;27435;48.480;9.258;2024-02-26T05:14:32;7.40;79.80
41756;DHT22;27435;48.480;9.258;2024-02-26T05:16:58;7.50;79.40
41756;DHT22;27435;48.480;9.258;2024-02-26T05:19:24;7.60;78.80
41756;DHT22;27435;48.480;9.258;2024-02-26T05:21:49;7.60;79.20
41756;DHT22;27435;48.480;9.258;2024-02-26T05:24:16;7.40;80.20
41756;DHT22;27435;48.480;9.258;2024-02-26T05:26:43;7.40;80.60
41756;DHT22;27435;48.480;9.258;2024-02-26T05:29:09;7.40;80.70
41756;DHT22;27435;48.480;9.258;2024-02-26T05:31:34;7.50;80.50
41756;DHT22;27435;48.480;9.258;2024-02-26T05:34:00;7.30;80.20
41756;DHT22;27435;48.480;9.258;2024-02-26T05:36:26;7.20;82.40
41756;DHT22;27435;48.480;9.258;2024-02-26T05:38:54;7.20;82.90
41756;DHT22;27435;48.480;9.258;2024-02-26T05:41:20;7.20;83.60
41756;DHT22;27435;48.480;9.258;2024-02-26T05:43:54;7.10;83.60
41756;DHT22;27435;48.480;9.258;2024-02-26T05:46:21;7.20;83.50
41756;DHT22;27435;48.480;9.258;2024-02-26T05:48:51;7.20;84.80
41756;DHT22;27435;48.480;9.258;2024-02-26T05:51:17;7.10;83.60
41756;DHT22;27435;48.480;9.258;2024-02-26T05:53:43;7.10;83.90
41756;DHT22;27435;48.480;9.258;2024-02-26T05:56:09;6.90;83.20
41756;DHT22;27435;48.480;9.258;2024-02-26T05:58:35;6.60;84.50
41756;DHT22;27435;48.480;9.258;2024-02-26T06:01:01;6.50;85.30
41756;DHT22;27435;48.480;9.258;2024-02-26T06:03:26;6.40;86.30
41756;DHT22;27435;48.480;9.258;2024-02-26T06:05:52;6.30;87.20
41756;DHT22;27435;48.480;9.258;2024-02-26T06:08:18;6.30;87.80
41756;DHT22;27435;48.480;9.258;2024-02-26T06:10:44;6.40;88.20
41756;DHT22;27435;48.480;9.258;2024-02-26T06:13:09;6.70;87.90
41756;DHT22;27435;48.480;9.258;2024-02-26T06:15:35;6.80;87.60
41756;DHT22;27435;48.480;9.258;2024-02-26T06:18:00;6.60;88.20
41756;DHT22;27435;48.480;9.258;2024-02-26T06:20:26;6.70;88.80
41756;DHT22;27435;48.480;9.258;2024-02-26T06:22:52;6.70;88.70
41756;DHT22;27435;48.480;9.258;2024-02-26T06:25:17;6.70;88.10
41756;DHT22;27435;48.480;9.258;2024-02-26T06:27:43;6.80;87.60
41756;DHT22;27435;48.480;9.258;2024-02-26T06:30:09;6.70;90.00
41756;DHT22;27435;48.480;9.258;2024-02-26T06:32:37;6.60;90.60
41756;DHT22;27435;48.480;9.258;2024-02-26T06:35:02;6.60;90.80
41756;DHT22;27435;48.480;9.258;2024-02-26T06:37:32;6.60;90.90
41756;DHT22;27435;48.480;9.258;2024-02-26T06:40:01;6.50;92.00
41756;DHT22;27435;48.480;9.258;2024-02-26T06:42:34;6.40;92.30
41756;DHT22;27435;48.480;9.258;2024-02-26T06:45:00;6.40;92.70
41756;DHT22;27435;48.480;9.258;2024-02-26T06:47:26;6.40;92.20
41756;DHT22;27435;48.480;9.258;2024-02-26T06:49:51;6.50;92.00
41756;DHT22;27435;48.480;9.258;2024-02-26T06:52:17;6.60;91.20
41756;DHT22;27435;48.480;9.258;2024-02-26T06:54:43;6.50;90.60
41756;DHT22;27435;48.480;9.258;2024-02-26T06:57:10;6.70;90.10
41756;DHT22;27435;48.480;9.258;2024-02-26T06:59:35;6.90;89.60
41756;DHT22;27435;48.480;9.258;2024-02-26T07:02:01;7.10;88.70
41756;DHT22;27435;48.480;9.258;2024-02-26T07:04:27;7.20;87.80
41756;DHT22;27435;48.480;9.258;2024-02-26T07:06:52;7.40;87.20
41756;DHT22;27435;48.480;9.258;2024-02-26T07:09:18;7.50;87.00
41756;DHT22;27435;48.480;9.258;2024-02-26T07:11:44;7.50;87.30
41756;DHT22;27435;48.480;9.258;2024-02-26T07:14:10;7.70;87.10
41756;DHT22;27435;48.480;9.258;2024-02-26T07:16:36;7.80;86.30
41756;DHT22;27435;48.480;9.258;2024-02-26T07:19:02;7.90;86.30
41756;DHT22;27435;48.480;9.258;2024-02-26T07:21:28;8.00;86.40
41756;DHT22;27435;48.480;9.258;2024-02-26T07:23:54;8.20;85.80
41756;DHT22;27435;48.480;9.258;2024-02-26T07:26:19;8.10;85.70
41756;DHT22;27435;48.480;9.258;2024-02-26T07:28:46;8.00;85.80
41756;DHT22;27435;48.480;9.258;2024-02-26T07:31:12;7.90;86.40
41756;DHT22;27435;48.480;9.258;2024-02-26T07:33:38;7.80;86.10
41756;DHT22;27435;48.480;9.258;2024-02-26T07:36:04;7.70;86.20
41756;DHT22;27435;48.480;9.258;2024-02-26T07:38:30;7.60;87.10
41756;DHT22;27435;48.480;9.258;2024-02-26T07:40:56;7.90;86.80
41756;DHT22;27435;48.480;9.258;2024-02-26T07:43:22;7.90;87.30
41756;DHT22;27435;48.480;9.258;2024-02-26T07:45:48;7.90;87.90
41756;DHT22;27435;48.480;9.258;2024-02-26T07:48:13;8.00;88.00
41756;DHT22;27435;48.480;9.258;2024-02-26T07:50:39;8.10;87.60
41756;DHT22;27435;48.480;9.258;2024-02-26T07:53:06;8.20;87.20
41756;DHT22;27435;48.480;9.258;2024-02-26T07:55:32;8.30;85.60
41756;DHT22;27435;48.480;9.258;2024-02-26T07:57:57;8.40;84.90
41756;DHT22;27435;48.480;9.258;2024-02-26T08:00:23;8.50;84.30
41756;DHT22;27435;48.480;9.258;2024-02-26T08:02:49;8.70;84.70
41756;DHT22;27435;48.480;9.258;2024-02-26T08:05:15;8.50;84.20
41756;DHT22;27435;48.480;9.258;2024-02-26T08:07:40;8.40;84.90
41756;DHT22;27435;48.480;9.258;2024-02-26T08:10:07;8.50;85.60
41756;DHT22;27435;48.480;9.258;2024-02-26T08:12:32;8.50;87.20
41756;DHT22;27435;48.480;9.258;2024-02-26T08:14:59;8.40;87.60
41756;DHT22;27435;48.480;9.258;2024-02-26T08:17:25;8.50;88.60
41756;DHT22;27435;48.480;9.258;2024-02-26T08:19:52;8.40;87.00
41756;DHT22;27435;48.480;9.258;2024-02-26T08:22:18;8.20;87.40
41756;DHT22;27435;48.480;9.258;2024-02-26T08:24:44;8.30;86.60
41756;DHT22;27435;48.480;9.258;2024-02-26T08:27:09;8.70;86.60
41756;DHT22;27435;48.480;9.258;2024-02-26T08:29:35;9.10;85.70
41756;DHT22;27435;48.480;9.258;2024-02-26T08:32:01;9.30;84.20
41756;DHT22;27435;48.480;9.258;2024-02-26T08:34:27;9.40;82.80
41756;DHT22;27435;48.480;9.258;2024-02-26T08:36:52;9.30;82.10
41756;DHT22;27435;48.480;9.258;2024-02-26T08:39:18;9.20;82.90
41756;DHT22;27435;48.480;9.258;2024-02-26T08:41:44;9.00;83.40
41756;DHT22;27435;48.480;9.258;2024-02-26T08:44:10;9.10;83.40
41756;DHT22;27435;48.480;9.258;2024-02-26T08:46:36;9.10;85.20
41756;DHT22;27435;48.480;9.258;2024-02-26T08:49:02;9.10;85.10
41756;DHT22;27435;48.480;9.258;2024-02-26T08:51:28;9.40;83.80
41756;DHT22;27435;48.480;9.258;2024-02-26T08:53:53;9.50;82.80
41756;DHT22;27435;48.480;9.258;2024-02-26T08:56:20;10.00;81.80
41756;DHT22;27435;48.480;9.258;2024-02-26T08:58:47;10.20;80.40
41756;DHT22;27435;48.480;9.258;2024-02-26T09:01:17;10.40;78.60
41756;DHT22;27435;48.480;9.258;2024-02-26T09:03:43;10.60;78.70
41756;DHT22;27435;48.480;9.258;2024-02-26T09:06:08;10.80;77.70
41756;DHT22;27435;48.480;9.258;2024-02-26T09:08:34;10.80;77.90
41756;DHT22;27435;48.480;9.258;2024-02-26T09:11:06;10.80;77.90
41756;DHT22;27435;48.480;9.258;2024-02-26T09:13:32;10.80;78.30
41756;DHT22;27435;48.480;9.258;2024-02-26T09:16:01;10.90;77.20
41756;DHT22;27435;48.480;9.258;2024-02-26T09:18:26;11.00;75.80
41756;DHT22;27435;48.480;9.258;2024-02-26T09:20:54;10.90;76.70
41756;DHT22;27435;48.480;9.258;2024-02-26T09:23:20;11.00;75.90
41756;DHT22;27435;48.480;9.258;2024-02-26T09:25:45;11.10;75.20
41756;DHT22;27435;48.480;9.258;2024-02-26T09:28:11;11.00;75.40
41756;DHT22;27435;48.480;9.258;2024-02-26T09:30:37;11.00;75.50
41756;DHT22;27435;48.480;9.258;2024-02-26T09:33:04;11.20;75.30
41756;DHT22;27435;48.480;9.258;2024-02-26T09:35:30;11.60;74.80
41756;DHT22;27435;48.480;9.258;2024-02-26T09:37:55;12.00;73.10
41756;DHT22;27435;48.480;9.258;2024-02-26T09:40:21;12.40;71.30
41756;DHT22;27435;48.480;9.258;2024-02-26T09:42:47;12.60;70.90
41756;DHT22;27435;48.480;9.258;2024-02-26T09:45:21;12.80;70.10
41756;DHT22;27435;48.480;9.258;2024-02-26T09:47:48;12.80;70.10
41756;DHT22;27435;48.480;9.258;2024-02-26T09:50:17;12.50;71.20
41756;DHT22;27435;48.480;9.258;2024-02-26T09:52:43;12.80;71.30
41756;DHT22;27435;48.480;9.258;2024-02-26T09:55:09;13.00;70.40
41756;DHT22;27435;48.480;9.258;2024-02-26T09:57:56;13.10;70.30
41756;DHT22;27435;48.480;9.258;2024-02-26T10:00:23;13.50;69.70
41756;DHT22;27435;48.480;9.258;2024-02-26T10:02:51;13.50;67.30
41756;DHT22;27435;48.480;9.258;2024-02-26T10:05:18;13.50;67.30
41756;DHT22;27435;48.480;9.258;2024-02-26T10:07:45;13.70;67.80
41756;DHT22;27435;48.480;9.258;2024-02-26T10:10:10;13.90;67.40
41756;DHT22;27435;48.480;9.258;2024-02-26T10:12:36;14.00;67.40
41756;DHT22;27435;48.480;9.258;2024-02-26T10:15:02;13.80;67.50
41756;DHT22;27435;48.480;9.258;2024-02-26T10:17:27;13.60;68.00
41756;DHT22;27435;48.480;9.258;2024-02-26T10:19:54;13.70;67.60
41756;DHT22;27435;48.480;9.258;2024-02-26T10:22:22;14.00;67.00
41756;DHT22;27435;48.480;9.258;2024-02-26T10:24:48;13.80;67.00
41756;DHT22;27435;48.480;9.258;2024-02-26T10:27:15;14.20;66.60
41756;DHT22;27435;48.480;9.258;2024-02-26T10:29:40;14.60;65.70
41756;DHT22;27435;48.480;9.258;2024-02-26T10:32:09;14.50;64.90
41756;DHT22;27435;48.480;9.258;2024-02-26T10:34:35;14.10;66.00
41756;DHT22;27435;48.480;9.258;2024-02-26T10:37:04;13.50;67.60
41756;DHT22;27435;48.480;9.258;2024-02-26T10:39:30;13.80;67.90
41756;DHT22;27435;48.480;9.258;2024-02-26T10:41:55;13.70;67.80
41756;DHT22;27435;48.480;9.258;2024-02-26T10:44:21;13.30;69.70
41756;DHT22;27435;48.480;9.258;2024-02-26T10:46:47;12.90;70.70
41756;DHT22;27435;48.480;9.258;2024-02-26T10:49:18;12.90;71.10
41756;DHT22;27435;48.480;9.258;2024-02-26T10:51:47;12.70;71.80
41756;DHT22;27435;48.480;9.258;2024-02-26T10:54:16;12.90;72.40
41756;DHT22;27435;48.480;9.258;2024-02-26T10:56:42;13.10;72.20
41756;DHT22;27435;48.480;9.258;2024-02-26T10:59:12;13.30;71.60
41756;DHT22;27435;48.480;9.258;2024-02-26T11:01:39;13.00;72.00
41756;DHT22;27435;48.480;9.258;2024-02-26T11:04:08;13.00;73.40
41756;DHT22;27435;48.480;9.258;2024-02-26T11:06:35;13.00;73.10
41756;DHT22;27435;48.480;9.258;2024-02-26T11:09:02;13.10;73.20
41756;DHT22;27435;48.480;9.258;2024-02-26T11:11:30;13.30;73.10
41756;DHT22;27435;48.480;9.258;2024-02-26T11:13:57;13.30;73.00
41756;DHT22;27435;48.480;9.258;2024-02-26T11:16:26;13.40;72.30
41756;DHT22;27435;48.480;9.258;2024-02-26T11:18:53;13.40;72.30
41756;DHT22;27435;48.480;9.258;2024-02-26T11:21:21;13.30;72.50
41756;DHT22;27435;48.480;9.258;2024-02-26T11:23:53;13.30;72.40
41756;DHT22;27435;48.480;9.258;2024-02-26T11:26:20;13.20;72.10
41756;DHT22;27435;48.480;9.258;2024-02-26T11:28:47;13.30;73.30
41756;DHT22;27435;48.480;9.258;2024-02-26T11:31:13;12.90;75.20
41756;DHT22;27435;48.480;9.258;2024-02-26T11:33:39;13.20;74.60
41756;DHT22;27435;48.480;9.258;2024-02-26T11:36:09;13.20;74.60
41756;DHT22;27435;48.480;9.258;2024-02-26T11:38:36;13.00;75.50
41756;DHT22;27435;48.480;9.258;2024-02-26T11:41:01;13.20;75.20
41756;DHT22;27435;48.480;9.258;2024-02-26T11:43:50;13.20;75.00
41756;DHT22;27435;48.480;9.258;2024-02-26T11:46:30;13.20;75.40
41756;DHT22;27435;48.480;9.258;2024-02-26T11:51:55;13.10;74.20
41756;DHT22;27435;48.480;9.258;2024-02-26T11:54:40;13.40;74.50
41756;DHT22;27435;48.480;9.258;2024-02-26T11:57:24;13.50;74.00
41756;DHT22;27435;48.480;9.258;2024-02-26T11:59:51;13.50;74.20
41756;DHT22;27435;48.480;9.258;2024-02-26T12:02:51;13.70;74.20
41756;DHT22;27435;48.480;9.258;2024-02-26T12:05:23;13.90;73.30
41756;DHT22;27435;48.480;9.258;2024-02-26T12:08:00;14.10;72.60
41756;DHT22;27435;48.480;9.258;2024-02-26T12:10:28;14.20;72.30
41756;DHT22;27435;48.480;9.258;2024-02-26T12:13:00;14.30;72.00
41756;DHT22;27435;48.480;9.258;2024-02-26T12:15:33;14.30;71.70
41756;DHT22;27435;48.480;9.258;2024-02-26T12:18:01;14.20;72.40
41756;DHT22;27435;48.480;9.258;2024-02-26T12:20:27;14.30;72.50
41756;DHT22;27435;48.480;9.258;2024-02-26T12:22:54;14.40;72.00
41756;DHT22;27435;48.480;9.258;2024-02-26T12:25:27;14.30;72.70
41756;DHT22;27435;48.480;9.258;2024-02-26T12:27:54;14.00;73.50
41756;DHT22;27435;48.480;9.258;2024-02-26T12:30:20;14.10;73.50
41756;DHT22;27435;48.480;9.258;2024-02-26T12:32:50;13.80;74.30
41756;DHT22;27435;48.480;9.258;2024-02-26T12:35:16;13.70;74.50
41756;DHT22;27435;48.480;9.258;2024-02-26T12:37:43;13.90;73.70
41756;DHT22;27435;48.480;9.258;2024-02-26T12:40:10;13.90;73.00
41756;DHT22;27435;48.480;9.258;2024-02-26T12:42:36;13.90;73.40
41756;DHT22;27435;48.480;9.258;2024-02-26T12:45:15;14.20;72.20
41756;DHT22;27435;48.480;9.258;2024-02-26T12:47:43;14.00;72.50
41756;DHT22;27435;48.480;9.258;2024-02-26T12:50:10;13.90;73.10
41756;DHT22;27435;48.480;9.258;2024-02-26T12:52:41;13.90;73.10
41756;DHT22;27435;48.480;9.258;2024-02-26T12:55:08;13.50;72.60
41756;DHT22;27435;48.480;9.258;2024-02-26T12:57:38;13.30;73.60
41756;DHT22;27435;48.480;9.258;2024-02-26T13:00:05;13.30;73.80
41756;DHT22;27435;48.480;9.258;2024-02-26T13:02:36;13.40;73.40
41756;DHT22;27435;48.480;9.258;2024-02-26T13:05:04;13.40;73.50
41756;DHT22;27435;48.480;9.258;2024-02-26T13:07:31;13.40;73.50
41756;DHT22;27435;48.480;9.258;2024-02-26T13:09:56;13.30;73.70
41756;DHT22;27435;48.480;9.258;2024-02-26T13:12:22;13.20;73.50
41756;DHT22;27435;48.480;9.258;2024-02-26T13:14:59;13.30;73.50
41756;DHT22;27435;48.480;9.258;2024-02-26T13:17:25;13.30;73.20
41756;DHT22;27435;48.480;9.258;2024-02-26T13:19:53;13.20;73.40
41756;DHT22;27435;48.480;9.258;2024-02-26T13:22:21;13.10;74.10
41756;DHT22;27435;48.480;9.258;2024-02-26T13:24:54;13.00;74.50
41756;DHT22;27435;48.480;9.258;2024-02-26T13:27:24;13.00;74.30
41756;DHT22;27435;48.480;9.258;2024-02-26T13:32:36;13.10;74.10
41756;DHT22;27435;48.480;9.258;2024-02-26T13:35:08;13.00;74.30
41756;DHT22;27435;48.480;9.258;2024-02-26T13:37:35;13.10;74.60
41756;DHT22;27435;48.480;9.258;2024-02-26T13:40:08;13.10;74.40
41756;DHT22;27435;48.480;9.258;2024-02-26T13:42:35;13.20;74.70
41756;DHT22;27435;48.480;9.258;2024-02-26T13:45:04;13.20;74.40
41756;DHT22;27435;48.480;9.258;2024-02-26T13:47:36;13.40;74.60
41756;DHT22;27435;48.480;9.258;2024-02-26T13:50:02;13.40;73.40
41756;DHT22;27435;48.480;9.258;2024-02-26T13:52:28;13.40;73.90
41756;DHT22;27435;48.480;9.258;2024-02-26T13:54:57;13.50;73.80
41756;DHT22;27435;48.480;9.258;2024-02-26T13:57:23;13.70;73.30
41756;DHT22;27435;48.480;9.258;2024-02-26T13:59:49;13.80;71.60
41756;DHT22;27435;48.480;9.258;2024-02-26T14:02:16;13.80;72.40
41756;DHT22;27435;48.480;9.258;2024-02-26T14:04:42;13.90;72.80
41756;DHT22;27435;48.480;9.258;2024-02-26T14:07:08;14.10;71.80
41756;DHT22;27435;48.480;9.258;2024-02-26T14:09:34;14.10;72.10
41756;DHT22;27435;48.480;9.258;2024-02-26T14:12:00;14.30;69.60
41756;DHT22;27435;48.480;9.258;2024-02-26T14:14:28;14.40;69.70
41756;DHT22;27435;48.480;9.258;2024-02-26T14:16:54;14.50;68.00
41756;DHT22;27435;48.480;9.258;2024-02-26T14:19:20;14.30;68.70
41756;DHT22;27435;48.480;9.258;2024-02-26T14:21:53;14.70;68.30
41756;DHT22;27435;48.480;9.258;2024-02-26T14:24:19;14.80;66.50
41756;DHT22;27435;48.480;9.258;2024-02-26T14:26:44;15.00;66.00
41756;DHT22;27435;48.480;9.258;2024-02-26T14:29:11;15.50;64.10
41756;DHT22;27435;48.480;9.258;2024-02-26T14:31:37;15.80;63.10
41756;DHT22;27435;48.480;9.258;2024-02-26T14:34:02;15.80;62.30
41756;DHT22;27435;48.480;9.258;2024-02-26T14:36:28;15.50;62.40
41756;DHT22;27435;48.480;9.258;2024-02-26T14:38:54;15.20;62.60
41756;DHT22;27435;48.480;9.258;2024-02-26T14:41:23;15.10;62.10
41756;DHT22;27435;48.480;9.258;2024-02-26T14:43:49;14.60;62.50
41756;DHT22;27435;48.480;9.258;2024-02-26T14:46:14;14.50;63.00
41756;DHT22;27435;48.480;9.258;2024-02-26T14:48:40;14.40;63.90
41756;DHT22;27435;48.480;9.258;2024-02-26T14:51:06;14.20;63.50
41756;DHT22;27435;48.480;9.258;2024-02-26T14:53:32;14.20;63.70
41756;DHT22;27435;48.480;9.258;2024-02-26T14:55:57;14.20;64.70
41756;DHT22;27435;48.480;9.258;2024-02-26T14:58:23;14.10;64.60
41756;DHT22;27435;48.480;9.258;2024-02-26T15:00:49;13.90;63.90
41756;DHT22;27435;48.480;9.258;2024-02-26T15:03:15;13.70;65.00
41756;DHT22;27435;48.480;9.258;2024-02-26T15:05:40;13.90;65.80
41756;DHT22;27435;48.480;9.258;2024-02-26T15:08:06;14.00;65.00
41756;DHT22;27435;48.480;9.258;2024-02-26T15:10:34;13.90;65.20
41756;DHT22;27435;48.480;9.258;2024-02-26T15:13:00;13.70;65.30
41756;DHT22;27435;48.480;9.258;2024-02-26T15:15:25;13.60;65.50
41756;DHT22;27435;48.480;9.258;2024-02-26T15:17:52;13.30;66.50
41756;DHT22;27435;48.480;9.258;2024-02-26T15:20:18;13.20;67.40
41756;DHT22;27435;48.480;9.258;2024-02-26T15:22:43;13.20;67.40
41756;DHT22;27435;48.480;9.258;2024-02-26T15:25:09;13.00;67.10
41756;DHT22;27435;48.480;9.258;2024-02-26T15:27:35;12.90;67.60
41756;DHT22;27435;48.480;9.258;2024-02-26T15:30:01;12.80;67.60
41756;DHT22;27435;48.480;9.258;2024-02-26T15:32:27;12.90;67.60
41756;DHT22;27435;48.480;9.258;2024-02-26T15:34:54;13.00;67.80
41756;DHT22;27435;48.480;9.258;2024-02-26T15:37:19;12.90;68.30
41756;DHT22;27435;48.480;9.258;2024-02-26T15:39:45;13.00;69.00
41756;DHT22;27435;48.480;9.258;2024-02-26T15:42:11;12.80;69.60
41756;DHT22;27435;48.480;9.258;2024-02-26T15:44:38;12.80;69.10